Time;durP1;ratioP1;P1;durP2;ratioP2;P2;SDS_P1;SDS_P2;PMS_P1;PMS_P2;Temp;Humidity;BMP_temperature;BMP_pressure;BME280_temperature;BME280_humidity;BME280_pressure;Samples;Min_cycle;Max_cycle;Signal;HPM_P1;HPM_P2
2024/02/17 00:00:13;;;;;;;28.83;20.60;;;;;;;12.34;84.73;100447.97;5013327;28;20084;-76
2024/02/17 00:02:40;;;;;;;31.20;21.35;;;;;;;12.33;84.98;100451.56;5013632;28;20050;-76
2024/02/17 00:05:07;;;;;;;29.90;21.42;;;;;;;12.32;85.10;100449.88;5013235;28;20108;-77
2024/02/17 00:07:34;;;;;;;29.08;18.77;;;;;;;12.33;85.10;100451.56;5012128;28;20054;-77
2024/02/17 00:10:03;;;;;;;31.08;20.55;;;;;;;12.33;85.15;100451.56;5012945;28;20415;-76
2024/02/17 00:12:30;;;;;;;29.40;19.20;;;;;;;12.33;84.83;100454.22;4995654;28;20050;-76
2024/02/17 00:14:57;;;;;;;27.00;18.27;;;;;;;12.33;84.96;100462.13;5013765;28;20069;-76
2024/02/17 00:17:23;;;;;;;25.95;18.60;;;;;;;12.33;85.11;100459.47;5013288;28;20053;-77
2024/02/17 00:19:50;;;;;;;28.33;17.67;;;;;;;12.33;84.81;100464.75;5013517;28;20100;-75
2024/02/17 00:22:17;;;;;;;31.52;19.30;;;;;;;12.33;84.50;100458.63;5013405;28;20049;-76
2024/02/17 00:24:43;;;;;;;26.05;18.15;;;;;;;12.32;84.29;100467.47;5012746;28;20553;-75
2024/02/17 00:27:11;;;;;;;26.88;17.67;;;;;;;12.31;84.10;100465.78;5012545;28;20050;-76
2024/02/17 00:29:38;;;;;;;28.13;17.55;;;;;;;12.31;84.30;100476.34;5012887;28;20557;-76
2024/02/17 00:32:04;;;;;;;28.02;18.85;;;;;;;12.29;84.39;100479.06;5012748;28;20475;-75
2024/02/17 00:34:31;;;;;;;27.10;18.23;;;;;;;12.28;84.35;100473.84;5012616;28;20136;-76
2024/02/17 00:36:59;;;;;;;29.02;19.65;;;;;;;12.27;84.37;100478.31;5012502;28;20064;-75
2024/02/17 00:39:29;;;;;;;30.17;18.83;;;;;;;12.25;83.88;100488.94;5012610;28;20061;-76
2024/02/17 00:41:55;;;;;;;27.58;19.77;;;;;;;12.27;84.21;100483.56;5012561;28;20065;-76
2024/02/17 00:44:22;;;;;;;28.60;19.50;;;;;;;12.25;84.27;100488.06;5012745;28;20058;-77
2024/02/17 00:46:48;;;;;;;28.65;19.50;;;;;;;12.24;84.26;100496.94;5012266;28;20049;-76
2024/02/17 00:49:15;;;;;;;28.00;19.52;;;;;;;12.23;84.55;100492.59;5296698;22;20053;-81
2024/02/17 00:51:42;;;;;;;32.13;20.77;;;;;;;12.23;84.52;100492.59;5015693;28;20055;-80
2024/02/17 00:54:09;;;;;;;28.33;19.55;;;;;;;12.20;84.41;100490.97;5032464;28;20053;-80
2024/02/17 00:56:36;;;;;;;28.58;19.05;;;;;;;12.19;84.55;100494.50;5032104;28;20058;-82
2024/02/17 00:59:02;;;;;;;34.25;20.77;;;;;;;12.19;84.89;100499.78;5032034;28;20177;-79
2024/02/17 01:01:29;;;;;;;29.63;19.73;;;;;;;12.19;85.00;100504.25;5032220;28;20111;-79
2024/02/17 01:04:05;;;;;;;29.77;19.98;;;;;;;12.19;85.03;100514.81;5031943;28;20056;-78
2024/02/17 01:06:32;;;;;;;30.65;21.15;;;;;;;12.19;85.18;100513.00;5014129;28;20108;-79
2024/02/17 01:08:59;;;;;;;30.42;21.02;;;;;;;12.20;85.21;100514.72;5031817;28;20140;-79
2024/02/17 01:11:26;;;;;;;34.13;21.58;;;;;;;12.20;85.01;100511.22;5031898;28;20552;-79
2024/02/17 01:13:52;;;;;;;33.05;20.85;;;;;;;12.20;84.91;100521.78;5032006;28;20041;-79
2024/02/17 01:16:19;;;;;;;31.38;20.50;;;;;;;12.20;84.94;100520.00;5031488;28;20045;-82
2024/02/17 01:18:46;;;;;;;35.05;21.25;;;;;;;12.20;84.93;100527.06;5031714;28;20049;-79
2024/02/17 01:21:13;;;;;;;31.08;20.83;;;;;;;12.20;84.83;100527.06;5031789;28;20057;-79
2024/02/17 01:23:39;;;;;;;30.95;20.48;;;;;;;12.19;84.90;100534.09;5031740;28;20049;-80
2024/02/17 01:26:06;;;;;;;31.77;20.50;;;;;;;12.19;84.92;100536.75;5031788;28;20100;-80
2024/02/17 01:28:33;;;;;;;37.03;21.30;;;;;;;12.19;85.04;100543.84;5031263;28;20053;-80
2024/02/17 01:31:00;;;;;;;37.20;21.77;;;;;;;12.18;85.18;100544.78;5031826;28;20075;-80
2024/02/17 01:33:26;;;;;;;31.45;20.38;;;;;;;12.18;84.98;100547.41;5031403;28;20107;-80
2024/02/17 01:35:54;;;;;;;32.13;20.50;;;;;;;12.19;84.97;100551.75;5031455;28;20576;-79
2024/02/17 01:38:20;;;;;;;29.13;19.95;;;;;;;12.19;84.93;100551.75;5030856;28;20053;-79
2024/02/17 01:40:47;;;;;;;33.90;21.27;;;;;;;12.18;84.92;100550.88;5031528;28;20434;-78
2024/02/17 01:43:14;;;;;;;33.58;19.77;;;;;;;12.17;84.83;100562.38;5013875;28;20245;-79
2024/02/17 01:45:41;;;;;;;28.92;19.77;;;;;;;12.16;84.58;100551.91;5013710;28;20053;-82
2024/02/17 01:48:08;;;;;;;34.75;21.55;;;;;;;12.16;84.67;100559.81;5030990;28;20497;-79
2024/02/17 01:50:35;;;;;;;35.88;21.02;;;;;;;12.15;84.75;100566.88;5013416;28;20085;-81
2024/02/17 01:53:02;;;;;;;33.92;20.50;;;;;;;12.12;84.78;100567.88;5031367;28;20560;-79
2024/02/17 01:55:30;;;;;;;33.83;20.58;;;;;;;12.12;84.89;100570.53;5031375;28;20128;-81
2024/02/17 01:57:57;;;;;;;35.95;20.83;;;;;;;12.11;84.97;100568.81;5013269;28;20045;-79
2024/02/17 02:00:23;;;;;;;37.25;20.35;;;;;;;12.12;84.94;100564.41;5013394;28;20064;-80
2024/02/17 02:02:50;;;;;;;34.72;21.10;;;;;;;12.11;84.91;100568.81;5031066;28;20458;-78
2024/02/17 02:05:17;;;;;;;32.50;20.40;;;;;;;12.11;84.91;100570.59;5030990;28;20494;-79
2024/02/17 02:07:44;;;;;;;32.20;20.20;;;;;;;12.10;85.26;100582.94;5030596;28;20060;-79
2024/02/17 02:10:12;;;;;;;30.23;20.17;;;;;;;12.09;85.32;100578.59;5030846;28;20084;-80
2024/02/17 02:12:39;;;;;;;31.73;20.23;;;;;;;12.10;85.23;100577.69;5030915;28;20511;-79
2024/02/17 02:15:10;;;;;;;31.90;18.65;;;;;;;12.11;85.16;100589.94;5030926;28;20049;-79
2024/02/17 02:17:37;;;;;;;34.42;19.58;;;;;;;12.11;85.17;100587.28;5013132;28;20095;-79
2024/02/17 02:20:11;;;;;;;34.35;19.92;;;;;;;12.10;84.57;100584.72;5030935;28;20049;-80
2024/02/17 02:22:38;;;;;;;29.30;20.08;;;;;;;12.13;85.05;100600.41;5030784;28;20050;-79
2024/02/17 02:25:06;;;;;;;31.50;20.05;;;;;;;12.12;84.92;100596.91;5030930;28;20053;-82
2024/02/17 02:27:42;;;;;;;32.47;20.33;;;;;;;12.08;84.24;100598.00;5030493;28;20057;-80
2024/02/17 02:30:10;;;;;;;32.45;21.50;;;;;;;12.11;84.87;100592.56;5030256;28;20060;-78
2024/02/17 02:32:37;;;;;;;32.70;19.95;;;;;;;12.11;84.83;100600.47;5013319;28;20055;-80
2024/02/17 02:35:04;;;;;;;32.72;19.92;;;;;;;12.10;85.03;100601.44;5013170;28;20057;-80
2024/02/17 02:37:31;;;;;;;31.98;20.13;;;;;;;12.11;84.87;100602.25;5030398;28;20045;-78
2024/02/17 02:39:57;;;;;;;34.55;20.48;;;;;;;12.11;84.89;100600.47;5030702;28;20107;-78
2024/02/17 02:42:24;;;;;;;35.22;19.92;;;;;;;12.11;85.08;100604.91;5030454;28;20095;-80
2024/02/17 02:44:50;;;;;;;35.35;20.27;;;;;;;12.12;85.17;100607.47;5030391;28;20055;-80
2024/02/17 02:47:18;;;;;;;30.98;19.38;;;;;;;12.12;85.08;100612.75;5030520;28;20069;-80
2024/02/17 02:49:45;;;;;;;36.90;21.38;;;;;;;12.11;84.98;100612.81;5030115;28;20079;-80
2024/02/17 02:52:14;;;;;;;36.55;21.40;;;;;;;12.10;84.91;100611.97;5029486;28;20421;-80
2024/02/17 02:54:41;;;;;;;34.83;20.52;;;;;;;12.10;84.89;100624.31;5030253;28;20077;-81
2024/02/17 02:57:08;;;;;;;38.58;21.42;;;;;;;12.10;85.04;100619.91;5012353;28;20494;-79
2024/02/17 02:59:35;;;;;;;36.47;21.95;;;;;;;12.10;84.96;100621.66;5012767;28;20060;-79
2024/02/17 03:02:04;;;;;;;38.55;21.17;;;;;;;12.07;84.75;100617.41;5030249;28;20057;-79
2024/02/17 03:04:31;;;;;;;34.97;21.33;;;;;;;12.08;84.91;100623.53;5030175;28;20054;-79
2024/02/17 03:06:58;;;;;;;35.97;21.92;;;;;;;12.09;85.08;100627.88;5030082;28;20045;-79
2024/02/17 03:09:25;;;;;;;35.80;21.60;;;;;;;12.09;84.94;100634.03;5030050;28;20076;-80
2024/02/17 03:11:51;;;;;;;34.60;22.05;;;;;;;12.07;84.88;100630.59;5012232;28;20049;-79
2024/02/17 03:14:18;;;;;;;35.30;22.02;;;;;;;12.07;84.98;100638.50;5012690;28;20073;-77
2024/02/17 03:16:45;;;;;;;41.22;22.85;;;;;;;12.07;84.90;100642.97;5029729;28;20554;-80
2024/02/17 03:19:12;;;;;;;41.33;22.05;;;;;;;12.06;84.85;100642.09;5012296;28;20054;-79
2024/02/17 03:21:40;;;;;;;37.08;22.85;;;;;;;12.06;84.99;100654.41;5029901;28;20053;-79
2024/02/17 03:24:07;;;;;;;39.97;23.30;;;;;;;12.06;84.95;100650.00;5029873;28;20073;-80
2024/02/17 03:26:35;;;;;;;39.13;22.40;;;;;;;12.06;85.10;100649.13;5012423;28;20065;-79
2024/02/17 03:29:03;;;;;;;40.22;23.63;;;;;;;12.04;84.84;100646.53;5012725;28;20107;-78
2024/02/17 03:31:29;;;;;;;38.47;22.50;;;;;;;12.04;85.12;100650.97;5030064;28;20046;-80
2024/02/17 03:33:58;;;;;;;35.45;22.83;;;;;;;12.05;85.11;100650.03;5012477;28;20090;-77
2024/02/17 03:36:26;;;;;;;39.75;24.52;;;;;;;12.04;85.10;100656.25;5029615;28;20045;-80
2024/02/17 03:38:53;;;;;;;38.08;22.65;;;;;;;12.04;85.18;100651.81;5029772;28;20072;-79
2024/02/17 03:41:19;;;;;;;36.78;22.33;;;;;;;12.04;85.02;100659.72;5030579;28;20123;-80
2024/02/17 03:43:46;;;;;;;38.92;21.48;;;;;;;12.06;85.11;100657.91;5033330;28;20498;-79
2024/02/17 03:46:12;;;;;;;35.15;21.98;;;;;;;12.07;85.46;100666.72;5033471;28;20056;-78
2024/02/17 03:48:39;;;;;;;36.90;22.17;;;;;;;12.07;85.16;100664.06;5015327;28;20410;-81
2024/02/17 03:51:06;;;;;;;34.75;21.60;;;;;;;12.07;85.05;100671.97;5015667;28;20409;-80
2024/02/17 03:53:35;;;;;;;36.47;23.17;;;;;;;12.07;85.17;100672.81;5033034;28;20053;-78
2024/02/17 03:56:02;;;;;;;37.53;22.20;;;;;;;12.07;84.98;100678.09;5015745;28;20053;-78
2024/02/17 03:58:29;;;;;;;38.33;22.33;;;;;;;12.07;85.02;100686.00;5033065;28;20053;-79
2024/02/17 04:00:56;;;;;;;31.80;21.80;;;;;;;12.08;85.03;100692.16;5033018;28;20099;-79
2024/02/17 04:03:23;;;;;;;39.30;22.95;;;;;;;12.09;85.23;100697.38;5015573;28;20056;-78
2024/02/17 04:05:50;;;;;;;33.97;21.88;;;;;;;12.09;85.18;100686.81;5033001;28;20057;-79
2024/02/17 04:08:17;;;;;;;39.50;23.05;;;;;;;12.08;84.91;100700.06;5032580;28;20411;-80
2024/02/17 04:10:43;;;;;;;40.05;23.10;;;;;;;12.08;84.90;100700.91;5033021;28;20049;-77
2024/02/17 04:13:10;;;;;;;37.30;23.65;;;;;;;12.07;85.08;100699.22;5015246;28;20136;-82
2024/02/17 04:15:38;;;;;;;37.53;22.95;;;;;;;12.09;84.96;100702.66;5032841;28;20052;-80
2024/02/17 04:18:09;;;;;;;38.13;23.40;;;;;;;12.08;85.08;100700.91;5032458;28;20136;-81
2024/02/17 04:20:37;;;;;;;37.35;21.60;;;;;;;12.09;85.12;100707.94;5032582;28;20063;-78
2024/02/17 04:23:05;;;;;;;40.70;25.90;;;;;;;12.09;85.13;100707.94;5032795;28;20053;-78
2024/02/17 04:25:32;;;;;;;38.72;24.40;;;;;;;12.10;85.04;100712.28;5032652;28;20060;-80
2024/02/17 04:28:04;;;;;;;39.90;24.73;;;;;;;12.08;84.49;100723.84;5032449;28;20049;-79
2024/02/17 04:30:31;;;;;;;40.53;23.90;;;;;;;12.11;84.98;100734.22;5032523;28;20061;-80
2024/02/17 04:32:58;;;;;;;40.83;23.38;;;;;;;12.10;84.91;100721.97;5014832;28;20049;-83
2024/02/17 04:35:25;;;;;;;38.70;24.52;;;;;;;12.10;84.67;100729.88;5032828;28;20448;-77
2024/02/17 04:37:55;;;;;;;39.33;23.60;;;;;;;12.06;83.83;100725.66;5032279;28;20095;-80
2024/02/17 04:40:22;;;;;;;38.72;23.75;;;;;;;12.05;83.88;100727.47;5032464;28;20056;-78
2024/02/17 04:42:52;;;;;;;39.10;24.02;;;;;;;12.03;83.89;100728.44;5014555;28;20161;-78
2024/02/17 04:45:19;;;;;;;34.30;22.92;;;;;;;11.99;83.90;100731.22;5032182;28;20517;-79
2024/02/17 04:47:45;;;;;;;39.53;24.10;;;;;;;11.97;84.07;100742.78;5014254;28;20054;-79
2024/02/17 04:50:12;;;;;;;39.38;24.63;;;;;;;11.95;84.56;100752.53;5014250;28;20049;-78
2024/02/17 04:52:41;;;;;;;35.58;23.40;;;;;;;11.93;84.74;100752.59;5031971;28;20045;-80
2024/02/17 04:55:08;;;;;;;37.33;23.98;;;;;;;11.92;84.90;100752.69;5032179;28;20071;-79
2024/02/17 04:57:35;;;;;;;42.28;24.20;;;;;;;11.92;85.18;100755.34;5032116;28;20049;-77
2024/02/17 05:00:05;;;;;;;36.53;25.13;;;;;;;11.91;85.12;100759.75;5031780;28;20063;-80
2024/02/17 05:02:35;;;;;;;44.10;26.05;;;;;;;11.93;85.36;100764.97;5031933;28;20064;-77
2024/02/17 05:05:01;;;;;;;35.90;24.63;;;;;;;11.93;85.17;100763.16;5032105;28;20165;-78
2024/02/17 05:07:28;;;;;;;38.13;25.33;;;;;;;11.94;85.32;100761.38;5031688;28;20528;-79
2024/02/17 05:09:55;;;;;;;37.03;23.67;;;;;;;11.94;85.37;100766.66;5014163;28;20107;-79
2024/02/17 05:12:21;;;;;;;35.47;23.92;;;;;;;11.94;85.38;100767.53;5031827;28;20430;-78
2024/02/17 05:14:48;;;;;;;35.75;23.13;;;;;;;11.96;85.38;100775.38;5032043;28;20042;-80
2024/02/17 05:17:15;;;;;;;37.10;24.30;;;;;;;11.97;85.49;100782.34;5013453;28;20856;-82
2024/02/17 05:19:41;;;;;;;38.80;24.05;;;;;;;11.97;85.28;100777.91;5031174;28;20520;-80
2024/02/17 05:22:08;;;;;;;38.03;24.77;;;;;;;11.99;85.27;100775.22;5014128;28;20197;-79
2024/02/17 05:24:38;;;;;;;35.67;24.27;;;;;;;12.00;85.04;100790.09;5014216;28;20494;-78
2024/02/17 05:27:05;;;;;;;35.55;23.98;;;;;;;11.99;85.07;100794.56;5031100;28;20053;-77
2024/02/17 05:29:32;;;;;;;36.40;23.55;;;;;;;12.00;85.17;100787.47;5031291;28;20092;-78
2024/02/17 05:31:59;;;;;;;43.00;25.10;;;;;;;12.01;85.13;100798.91;5031346;28;20057;-77
2024/02/17 05:34:25;;;;;;;39.30;24.23;;;;;;;12.01;84.96;100805.03;5031198;28;20076;-80
2024/02/17 05:36:52;;;;;;;38.38;26.30;;;;;;;12.02;84.97;100809.38;5013307;28;20503;-80
2024/02/17 05:39:19;;;;;;;37.92;25.85;;;;;;;12.03;85.00;100813.72;5031328;28;20046;-80
2024/02/17 05:41:45;;;;;;;40.53;26.58;;;;;;;12.02;84.77;100821.72;5013345;28;20426;-80
2024/02/17 05:44:12;;;;;;;39.55;26.05;;;;;;;12.00;84.87;100821.78;5013515;28;20050;-79
2024/02/17 05:46:39;;;;;;;39.40;25.42;;;;;;;12.00;84.81;100829.69;5030612;28;20053;-79
2024/02/17 05:49:05;;;;;;;40.25;25.85;;;;;;;11.99;84.69;100827.97;5030732;28;20064;-79
2024/02/17 05:51:32;;;;;;;37.78;24.10;;;;;;;11.98;84.66;100824.50;5031142;28;20080;-79
2024/02/17 05:53:59;;;;;;;37.38;24.25;;;;;;;11.98;84.90;100831.56;5030766;28;20175;-78
2024/02/17 05:56:25;;;;;;;35.88;24.67;;;;;;;11.96;84.95;100828.97;5030549;28;20049;-80
2024/02/17 05:58:52;;;;;;;44.30;25.85;;;;;;;11.97;85.17;100835.97;5013374;28;20142;-80
2024/02/17 06:01:21;;;;;;;38.28;24.63;;;;;;;11.97;84.97;100840.41;5031061;28;20107;-79
2024/02/17 06:03:47;;;;;;;42.58;25.83;;;;;;;11.97;85.13;100856.25;5030436;28;20056;-79
2024/02/17 06:06:14;;;;;;;39.30;25.10;;;;;;;11.98;85.08;100855.31;5030714;28;20058;-79
2024/02/17 06:08:41;;;;;;;40.20;25.52;;;;;;;11.98;85.06;100857.94;5030513;28;20076;-79
2024/02/17 06:11:08;;;;;;;38.88;24.75;;;;;;;11.98;85.10;100857.94;5030730;28;20461;-79
2024/02/17 06:13:35;;;;;;;39.42;25.15;;;;;;;11.98;85.15;100858.81;5030669;28;20100;-79
2024/02/17 06:16:03;;;;;;;38.67;25.67;;;;;;;11.99;85.09;100868.44;5030665;28;20057;-78
2024/02/17 06:21:20;;;;;;;40.83;25.23;;;;;;;12.00;84.38;100877.19;5030385;28;20049;-79
2024/02/17 06:23:53;;;;;;;39.05;24.02;;;;;;;12.02;84.98;100875.34;5030383;28;20045;-80
2024/02/17 06:26:26;;;;;;;40.38;24.75;;;;;;;12.02;84.83;100890.31;5030817;28;20049;-79
2024/02/17 06:28:54;;;;;;;38.05;24.40;;;;;;;12.02;84.87;100887.69;5013036;28;20096;-78
2024/02/17 06:31:22;;;;;;;42.15;23.13;;;;;;;12.01;84.85;100894.75;5022634;28;20085;-78
2024/02/17 06:33:49;;;;;;;36.13;22.83;;;;;;;12.02;84.68;100901.75;5030474;28;20465;-80
2024/02/17 06:36:16;;;;;;;35.55;22.10;;;;;;;11.99;84.78;100902.75;5030847;28;20046;-78
2024/02/17 06:38:43;;;;;;;38.85;23.38;;;;;;;11.99;84.61;100905.38;5013021;28;20484;-80
2024/02/17 06:41:11;;;;;;;35.53;23.00;;;;;;;11.99;84.71;100905.38;5030803;28;20077;-79
2024/02/17 06:43:38;;;;;;;37.53;21.90;;;;;;;11.99;84.76;100912.44;5013218;28;20525;-76
2024/02/17 06:46:07;;;;;;;32.78;21.23;;;;;;;11.98;84.63;100914.22;5030397;28;20053;-79
2024/02/17 06:48:36;;;;;;;33.55;21.77;;;;;;;11.97;84.47;100914.28;5116397;23;20596;-77
2024/02/17 06:51:03;;;;;;;31.52;19.73;;;;;;;11.97;84.39;100928.31;5014406;28;20498;-77
2024/02/17 06:53:29;;;;;;;30.55;19.10;;;;;;;11.96;84.27;100938.97;5050920;28;20144;-76
2024/02/17 06:55:56;;;;;;;29.55;19.27;;;;;;;11.95;84.53;100938.09;5051017;28;20440;-76
2024/02/17 06:58:23;;;;;;;33.33;20.38;;;;;;;11.95;84.55;100943.38;5050097;28;20053;-77
2024/02/17 07:00:49;;;;;;;29.98;19.70;;;;;;;11.95;84.50;100947.78;5050588;28;20523;-76
2024/02/17 07:03:16;;;;;;;30.52;20.80;;;;;;;11.94;84.36;100946.09;5050450;28;20180;-76
2024/02/17 07:05:43;;;;;;;34.05;20.30;;;;;;;11.93;84.45;100949.66;5049947;28;20057;-75
2024/02/17 07:08:11;;;;;;;28.05;19.23;;;;;;;11.92;84.62;100954.06;5049960;28;20106;-77
2024/02/17 07:10:38;;;;;;;33.67;19.38;;;;;;;11.92;84.72;100958.50;5032464;28;20055;-77
2024/02/17 07:13:07;;;;;;;33.33;19.70;;;;;;;11.91;84.73;100956.75;5050036;28;20464;-75
2024/02/17 07:15:34;;;;;;;32.45;19.83;;;;;;;11.93;84.63;100962.84;5051113;28;20056;-76
2024/02/17 07:18:01;;;;;;;33.20;19.48;;;;;;;11.92;84.70;100964.63;5053959;28;20137;-76
2024/02/17 07:20:31;;;;;;;30.20;19.33;;;;;;;11.94;84.78;100967.19;5053896;28;20072;-77
2024/02/17 07:22:58;;;;;;;29.33;17.77;;;;;;;11.94;84.90;100972.47;5053961;28;20049;-76
2024/02/17 07:25:27;;;;;;;31.60;19.08;;;;;;;11.95;84.82;100975.03;5053713;28;20045;-75
2024/02/17 07:27:57;;;;;;;29.50;18.88;;;;;;;11.96;84.74;100981.19;5053495;28;20049;-76
2024/02/17 07:30:25;;;;;;;31.77;18.63;;;;;;;11.99;84.92;100988.94;5036281;28;20056;-79
2024/02/17 07:32:52;;;;;;;30.52;19.05;;;;;;;12.00;84.88;100995.94;5053904;28;20061;-77
2024/02/17 07:35:20;;;;;;;26.33;18.27;;;;;;;12.01;84.96;101000.31;5053939;28;20127;-77
2024/02/17 07:37:47;;;;;;;34.88;19.63;;;;;;;12.03;84.90;101003.72;5053189;28;20636;-77
2024/02/17 07:40:13;;;;;;;28.15;18.30;;;;;;;12.07;84.74;101007.16;5053617;28;20044;-76
2024/02/17 07:42:40;;;;;;;32.10;18.52;;;;;;;12.07;84.58;101018.53;5053566;28;20179;-76
2024/02/17 07:45:07;;;;;;;26.98;19.25;;;;;;;12.09;84.69;101016.72;5053544;28;20049;-74
2024/02/17 07:47:34;;;;;;;27.02;17.73;;;;;;;12.10;84.68;101026.34;5053297;28;20052;-74
2024/02/17 07:50:04;;;;;;;32.90;19.08;;;;;;;12.12;84.54;101023.63;5053225;28;20573;-74
2024/02/17 07:52:31;;;;;;;28.50;17.77;;;;;;;12.14;84.31;101029.69;5053333;28;20053;-77
2024/02/17 07:54:58;;;;;;;32.20;18.42;;;;;;;12.15;84.44;101033.19;5035389;28;20067;-78
2024/02/17 07:57:26;;;;;;;27.67;17.67;;;;;;;12.15;84.50;101038.47;5052671;28;20053;-74
2024/02/17 07:59:54;;;;;;;25.65;17.20;;;;;;;12.16;84.40;101045.47;5053350;28;20045;-77
2024/02/17 08:02:20;;;;;;;26.98;17.08;;;;;;;12.18;84.24;101051.56;5053351;28;20045;-77
2024/02/17 08:04:47;;;;;;;29.50;18.10;;;;;;;12.19;84.17;101050.63;5052854;28;20048;-77
2024/02/17 08:07:15;;;;;;;27.33;17.48;;;;;;;12.20;84.48;101062.91;5034701;28;20045;-80
2024/02/17 08:09:47;;;;;;;24.48;17.40;;;;;;;12.20;84.26;101058.47;5052551;28;20480;-76
2024/02/17 08:12:15;;;;;;;25.85;16.67;;;;;;;12.22;84.15;101061.03;5052762;28;20132;-77
2024/02/17 08:14:42;;;;;;;27.15;16.92;;;;;;;12.21;84.01;101065.47;5052625;28;20472;-75
2024/02/17 08:17:09;;;;;;;28.98;16.75;;;;;;;12.21;83.67;101065.47;5052063;28;20049;-78
2024/02/17 08:19:35;;;;;;;25.90;15.95;;;;;;;12.21;83.84;101064.59;5052584;28;20502;-77
2024/02/17 08:22:03;;;;;;;24.40;15.65;;;;;;;12.19;83.69;101067.31;5052756;28;20480;-77
2024/02/17 08:24:30;;;;;;;22.95;14.75;;;;;;;12.18;83.72;101073.50;5052677;28;20064;-79
2024/02/17 08:26:57;;;;;;;23.08;14.55;;;;;;;12.18;83.70;101080.59;5051723;28;20049;-78
2024/02/17 08:29:23;;;;;;;20.15;15.00;;;;;;;12.17;83.64;101089.41;5052640;28;20057;-76
2024/02/17 08:31:51;;;;;;;23.52;13.68;;;;;;;12.17;83.92;101092.91;5052676;28;20045;-76
2024/02/17 08:34:18;;;;;;;23.15;14.93;;;;;;;12.19;83.83;101100.78;5052544;28;20045;-73
2024/02/17 08:36:45;;;;;;;23.17;13.70;;;;;;;12.18;83.79;101097.28;5052230;28;20076;-76
2024/02/17 08:39:14;;;;;;;17.90;13.07;;;;;;;12.19;84.00;101098.97;5034590;28;20118;-76
2024/02/17 08:41:41;;;;;;;17.05;12.77;;;;;;;12.21;84.19;101101.56;5052431;28;20053;-77
2024/02/17 08:44:08;;;;;;;17.25;13.32;;;;;;;12.23;84.23;101105.00;5052574;28;20049;-76
2024/02/17 08:46:38;;;;;;;20.75;13.32;;;;;;;12.25;84.15;101111.06;5035182;28;20053;-75
2024/02/17 08:49:05;;;;;;;22.58;13.57;;;;;;;12.28;84.19;101113.59;5052179;28;20052;-75
2024/02/17 08:51:32;;;;;;;19.92;13.30;;;;;;;12.30;84.25;101116.16;5051841;28;20048;-77
2024/02/17 08:53:58;;;;;;;26.35;14.25;;;;;;;12.32;84.33;101125.75;5051914;28;20131;-77
2024/02/17 08:56:25;;;;;;;18.63;12.68;;;;;;;12.34;84.35;101129.16;5051763;28;20055;-77
2024/02/17 08:58:51;;;;;;;20.35;13.35;;;;;;;12.38;84.54;101127.25;5051967;28;20080;-77
2024/02/17 09:01:18;;;;;;;20.65;13.65;;;;;;;12.43;84.85;101129.69;5051881;28;20169;-74
2024/02/17 09:03:45;;;;;;;21.63;13.95;;;;;;;12.48;84.58;101135.63;5051827;28;20048;-77
2024/02/17 09:06:12;;;;;;;22.77;13.80;;;;;;;12.52;84.50;101139.84;5051684;28;20064;-76
2024/02/17 09:08:39;;;;;;;18.33;12.10;;;;;;;12.56;84.09;101132.69;5051530;28;20049;-76
2024/02/17 09:11:06;;;;;;;21.25;12.43;;;;;;;12.60;84.03;101134.25;5051911;28;20096;-76
2024/02/17 09:13:33;;;;;;;19.77;13.05;;;;;;;12.63;84.36;101148.19;5051789;28;20408;-76
2024/02/17 09:15:59;;;;;;;19.75;13.45;;;;;;;12.70;84.42;101155.84;5051641;28;20494;-76
2024/02/17 09:18:26;;;;;;;24.02;12.98;;;;;;;12.71;84.17;101147.84;5051254;28;20051;-75
2024/02/17 09:20:53;;;;;;;24.55;13.07;;;;;;;12.76;83.98;101151.13;5033951;28;20049;-77
2024/02/17 09:23:19;;;;;;;18.85;12.15;;;;;;;12.80;83.92;101151.88;5051500;28;20474;-77
2024/02/17 09:25:46;;;;;;;17.65;12.65;;;;;;;12.82;83.57;101152.66;5033842;28;20107;-75
2024/02/17 09:28:12;;;;;;;19.83;12.63;;;;;;;12.86;83.96;101156.88;5050971;28;20044;-74
2024/02/17 09:30:39;;;;;;;21.10;12.10;;;;;;;12.90;83.94;101150.53;5051352;28;20088;-78
2024/02/17 09:33:05;;;;;;;16.77;12.25;;;;;;;12.95;84.35;101160.91;5051218;28;20045;-76
2024/02/17 09:35:32;;;;;;;19.08;12.07;;;;;;;13.02;84.96;101158.84;5051514;28;20049;-74
2024/02/17 09:37:59;;;;;;;15.48;12.18;;;;;;;13.08;85.07;101161.22;5033522;28;20140;-78
2024/02/17 09:40:26;;;;;;;18.25;12.25;;;;;;;13.18;84.86;101164.31;5050334;28;20045;-80
2024/02/17 09:42:52;;;;;;;16.90;12.82;;;;;;;13.26;84.62;101166.59;5051082;28;20053;-77
2024/02/17 09:45:19;;;;;;;20.95;12.65;;;;;;;13.32;84.81;101174.25;5050986;28;20494;-77
2024/02/17 09:47:48;;;;;;;20.13;12.25;;;;;;;13.41;84.53;101173.84;5032893;28;20149;-78
2024/02/17 09:50:18;;;;;;;17.63;12.57;;;;;;;13.48;84.28;101176.22;5033272;28;20091;-75
2024/02/17 09:52:48;;;;;;;22.65;16.27;;;;;;;13.57;83.67;101182.88;5050902;28;20529;-77
2024/02/17 09:55:16;;;;;;;20.98;15.70;;;;;;;13.65;83.89;101192.16;5050748;28;20065;-77
2024/02/17 09:57:43;;;;;;;21.50;14.52;;;;;;;13.72;83.74;101197.19;5049793;28;20095;-77
2024/02/17 10:00:20;;;;;;;19.92;14.15;;;;;;;13.79;83.42;101193.28;5051177;28;20052;-77
2024/02/17 10:02:48;;;;;;;16.70;11.75;;;;;;;13.84;83.02;101196.59;5050954;28;20494;-78
2024/02/17 10:05:20;;;;;;;15.88;11.23;;;;;;;13.89;82.65;101206.94;5050955;28;20143;-78
2024/02/17 10:07:49;;;;;;;15.25;11.30;;;;;;;13.90;82.43;101206.88;5050493;28;20526;-77
2024/02/17 10:10:18;;;;;;;15.13;11.00;;;;;;;13.95;81.95;101214.63;5050644;28;20540;-77
2024/02/17 10:12:56;;;;;;;14.60;10.25;;;;;;;13.91;79.19;101219.19;5050749;28;20048;-77
2024/02/17 10:15:24;;;;;;;16.45;11.18;;;;;;;13.94;81.34;101219.03;5050924;28;20055;-77
2024/02/17 10:17:53;;;;;;;20.88;11.40;;;;;;;13.93;81.02;101222.63;5050654;28;20053;-77
2024/02/17 10:20:20;;;;;;;16.02;10.13;;;;;;;13.95;81.24;101230.50;5050505;28;20052;-76
2024/02/17 10:22:47;;;;;;;13.20;9.77;;;;;;;13.97;81.78;101227.78;5050531;28;20056;-78
2024/02/17 10:25:15;;;;;;;13.32;10.48;;;;;;;14.00;82.08;101240.84;5050486;28;20049;-78
2024/02/17 10:27:43;;;;;;;16.60;11.07;;;;;;;14.03;82.08;101238.94;5050472;28;20126;-76
2024/02/17 10:30:17;;;;;;;13.80;10.25;;;;;;;14.06;79.86;101243.22;5050716;28;20079;-75
2024/02/17 10:32:44;;;;;;;13.48;10.48;;;;;;;14.11;81.20;101243.84;5033169;28;20429;-76
2024/02/17 10:35:11;;;;;;;13.55;9.85;;;;;;;14.15;80.98;101247.19;5050232;28;20048;-75
2024/02/17 10:37:39;;;;;;;14.23;9.30;;;;;;;14.16;81.15;101257.72;5050198;28;20049;-77
2024/02/17 10:40:12;;;;;;;12.77;9.13;;;;;;;14.16;79.77;101249.78;5050500;28;20083;-75
2024/02/17 10:42:38;;;;;;;13.55;9.82;;;;;;;14.22;81.13;101250.41;5050569;28;20056;-76
2024/02/17 10:45:06;;;;;;;13.35;9.93;;;;;;;14.25;80.63;101259.09;5050518;28;20045;-77
2024/02/17 10:47:36;;;;;;;15.35;10.25;;;;;;;14.26;80.18;101257.28;5050064;28;20078;-81
2024/02/17 10:50:21;;;;;;;15.35;10.10;;;;;;;14.26;78.17;101263.44;5050855;28;20045;-76
2024/02/17 10:52:50;;;;;;;14.20;10.15;;;;;;;14.32;79.50;101259.66;5054820;28;20071;-77
2024/02/17 10:55:24;;;;;;;12.73;9.35;;;;;;;14.34;78.91;101257.78;5054668;28;20053;-77
2024/02/17 10:57:56;;;;;;;18.27;10.95;;;;;;;14.37;78.74;101262.94;5036535;28;20047;-78
2024/02/17 11:00:24;;;;;;;15.32;9.73;;;;;;;14.42;80.71;101254.72;5036506;28;20068;-76
2024/02/17 11:03:02;;;;;;;13.70;9.32;;;;;;;14.42;77.81;101255.59;5054659;28;20151;-73
2024/02/17 11:05:32;;;;;;;14.50;9.68;;;;;;;14.48;79.98;101259.75;5054415;28;20106;-76
2024/02/17 11:07:59;;;;;;;14.27;9.45;;;;;;;14.55;81.11;101262.94;5053946;28;20092;-77
2024/02/17 11:10:30;;;;;;;15.05;9.38;;;;;;;14.61;81.34;101261.78;5054198;28;20049;-76
2024/02/17 11:12:58;;;;;;;13.52;9.43;;;;;;;14.68;81.32;101263.19;5054177;28;20067;-75